createdAt,value
2018-05-17T00:01:22.195Z,99.90
2018-05-17T00:03:49.660Z,99.90
2018-05-17T00:06:17.105Z,99.90
2018-05-17T00:08:44.558Z,99.90
2018-05-17T00:11:12.023Z,99.90
2018-05-17T00:13:39.482Z,99.90
2018-05-17T00:16:06.932Z,99.90
2018-05-17T00:18:34.391Z,99.90
2018-05-17T00:21:01.850Z,99.90
2018-05-17T00:23:29.311Z,99.90
2018-05-17T00:25:56.760Z,99.90
2018-05-17T00:28:24.222Z,99.90
2018-05-17T00:30:51.690Z,99.90
2018-05-17T00:33:19.156Z,99.90
2018-05-17T00:35:46.700Z,99.90
2018-05-17T00:38:14.071Z,99.90
2018-05-17T00:40:41.524Z,99.90
2018-05-17T00:43:08.991Z,99.90
2018-05-17T00:45:36.459Z,99.90
2018-05-17T00:48:03.910Z,99.90
2018-05-17T00:50:31.355Z,99.90
2018-05-17T00:53:10.750Z,99.90
2018-05-17T00:55:38.206Z,99.90
2018-05-17T00:58:05.691Z,99.90
2018-05-17T01:00:33.125Z,99.90
2018-05-17T01:03:00.588Z,99.90
2018-05-17T01:05:28.055Z,99.90
2018-05-17T01:07:55.509Z,99.90
2018-05-17T01:10:22.973Z,99.90
2018-05-17T01:12:50.535Z,99.90
2018-05-17T01:15:17.919Z,99.90
2018-05-17T01:17:46.163Z,99.90
2018-05-17T01:20:13.623Z,99.90
2018-05-17T01:22:41.094Z,99.90
2018-05-17T01:25:08.547Z,99.90
2018-05-17T01:27:36.022Z,99.90
2018-05-17T01:30:03.479Z,99.90
2018-05-17T01:32:30.930Z,99.90
2018-05-17T01:34:58.436Z,99.90
2018-05-17T01:37:37.680Z,99.90
2018-05-17T01:40:05.129Z,99.90
2018-05-17T01:42:32.614Z,99.90
2018-05-17T01:45:00.122Z,99.90
2018-05-17T01:47:46.020Z,99.90
2018-05-17T01:50:13.488Z,99.90
2018-05-17T01:52:40.950Z,99.90
2018-05-17T01:55:08.405Z,99.90
2018-05-17T01:57:35.870Z,99.90
2018-05-17T02:00:03.321Z,99.90
2018-05-17T02:02:30.778Z,99.90
2018-05-17T02:04:58.236Z,99.90
2018-05-17T02:07:26.448Z,99.90
2018-05-17T02:09:53.903Z,99.90
2018-05-17T02:12:21.347Z,99.90
2018-05-17T02:14:48.816Z,99.90
2018-05-17T02:17:16.270Z,99.90
2018-05-17T02:19:43.727Z,99.90
2018-05-17T02:22:11.183Z,99.90
2018-05-17T02:24:38.641Z,99.90
2018-05-17T02:27:06.096Z,99.90
2018-05-17T02:29:33.578Z,99.90
2018-05-17T02:32:01.015Z,99.90
2018-05-17T02:34:28.476Z,99.90
2018-05-17T02:36:55.928Z,99.90
2018-05-17T02:39:23.390Z,99.90
2018-05-17T02:41:50.830Z,99.90
2018-05-17T02:44:18.301Z,99.90
2018-05-17T02:46:45.758Z,99.90
2018-05-17T02:49:13.314Z,99.90
2018-05-17T02:51:40.670Z,99.90
2018-05-17T02:54:08.138Z,99.90
2018-05-17T02:56:35.585Z,99.90
2018-05-17T02:59:03.043Z,99.90
2018-05-17T03:01:30.500Z,99.90
2018-05-17T03:03:57.954Z,99.90
2018-05-17T03:06:25.410Z,99.90
2018-05-17T03:08:52.873Z,99.90
2018-05-17T03:11:20.342Z,99.90
2018-05-17T03:13:47.820Z,99.90
2018-05-17T03:16:16.037Z,99.90
2018-05-17T03:18:43.503Z,99.90
2018-05-17T03:21:10.971Z,99.90
2018-05-17T03:23:38.427Z,99.90
2018-05-17T03:26:05.885Z,99.90
2018-05-17T03:28:33.341Z,99.90
2018-05-17T03:31:00.797Z,99.90
2018-05-17T03:33:28.257Z,99.90
2018-05-17T03:35:55.713Z,99.90
2018-05-17T03:38:23.171Z,99.90
2018-05-17T03:40:50.627Z,99.90
2018-05-17T03:43:18.068Z,99.90
2018-05-17T03:45:45.546Z,99.90
2018-05-17T03:48:13.001Z,99.90
2018-05-17T03:50:40.470Z,99.90
2018-05-17T03:53:07.910Z,99.90
2018-05-17T03:55:35.372Z,99.90
2018-05-17T03:58:02.826Z,99.90
2018-05-17T04:00:42.981Z,99.90
2018-05-17T04:03:22.230Z,99.90
2018-05-17T04:06:01.670Z,99.90
2018-05-17T04:08:29.142Z,99.90
2018-05-17T04:10:56.577Z,99.90
2018-05-17T04:13:24.022Z,99.90
2018-05-17T04:15:51.481Z,99.90
2018-05-17T04:18:18.923Z,99.90
2018-05-17T04:20:46.394Z,99.90
2018-05-17T04:23:13.850Z,99.90
2018-05-17T04:25:41.322Z,99.90
2018-05-17T04:28:08.750Z,99.90
2018-05-17T04:30:36.234Z,99.90
2018-05-17T04:33:03.678Z,99.90
2018-05-17T04:35:31.127Z,99.90
2018-05-17T04:37:58.574Z,99.90
2018-05-17T04:40:26.092Z,99.90
2018-05-17T04:42:53.508Z,99.90
2018-05-17T04:45:20.964Z,99.90
2018-05-17T04:47:48.420Z,99.90
2018-05-17T04:50:15.891Z,99.90
2018-05-17T04:52:43.323Z,99.90
2018-05-17T04:55:10.777Z,99.90
2018-05-17T04:57:38.223Z,99.90
2018-05-17T05:00:05.695Z,99.90
2018-05-17T05:02:33.195Z,99.90
2018-05-17T05:05:00.680Z,99.90
2018-05-17T05:07:28.909Z,99.90
2018-05-17T05:09:56.362Z,99.90
2018-05-17T05:12:23.821Z,99.90
2018-05-17T05:14:51.267Z,99.90
2018-05-17T05:17:18.733Z,99.90
2018-05-17T05:19:46.179Z,99.90
2018-05-17T05:22:13.634Z,99.90
2018-05-17T05:24:41.096Z,99.90
2018-05-17T05:27:08.567Z,99.90
2018-05-17T05:29:36.043Z,99.90
2018-05-17T05:32:03.485Z,99.90
2018-05-17T05:34:30.938Z,99.90
2018-05-17T05:36:58.398Z,99.90
2018-05-17T05:39:25.857Z,99.90
2018-05-17T05:41:53.332Z,99.90
2018-05-17T05:44:20.773Z,99.90
2018-05-17T05:46:48.236Z,99.90
2018-05-17T05:49:15.724Z,99.90
2018-05-17T05:51:43.183Z,99.90
2018-05-17T05:54:11.398Z,99.90
2018-05-17T05:56:38.871Z,99.90
2018-05-17T05:59:06.310Z,99.90
2018-05-17T06:01:33.761Z,99.90
2018-05-17T06:04:01.229Z,99.90
2018-05-17T06:06:28.683Z,99.90
2018-05-17T06:08:56.145Z,99.90
2018-05-17T06:11:23.605Z,99.90
2018-05-17T06:13:51.065Z,99.90
2018-05-17T06:16:18.519Z,99.90
2018-05-17T06:18:45.991Z,99.90
2018-05-17T06:21:13.441Z,99.90
2018-05-17T06:23:40.895Z,99.90
2018-05-17T06:26:08.346Z,99.90
2018-05-17T06:28:35.801Z,99.90
2018-05-17T06:31:03.249Z,99.90
2018-05-17T06:33:30.722Z,99.90
2018-05-17T06:35:58.174Z,99.90
2018-05-17T06:38:25.635Z,99.90
2018-05-17T06:40:53.101Z,99.90
2018-05-17T06:43:20.549Z,99.90
2018-05-17T06:45:48.008Z,99.90
2018-05-17T06:48:15.461Z,99.90
2018-05-17T06:50:42.924Z,99.90
2018-05-17T06:53:10.376Z,99.90
2018-05-17T06:55:37.813Z,99.90
2018-05-17T06:58:05.291Z,99.90
2018-05-17T07:00:32.790Z,99.90
2018-05-17T07:03:00.202Z,99.90
2018-05-17T07:05:27.669Z,99.90
2018-05-17T07:07:55.133Z,99.90
2018-05-17T07:10:22.608Z,99.90
2018-05-17T07:12:50.042Z,99.90
2018-05-17T07:15:17.492Z,99.90
2018-05-17T07:17:44.958Z,99.90
2018-05-17T07:20:12.396Z,99.90
2018-05-17T07:22:39.853Z,99.90
2018-05-17T07:25:07.303Z,99.90
2018-05-17T07:27:34.783Z,99.90
2018-05-17T07:30:02.227Z,99.90
2018-05-17T07:32:29.690Z,99.90
2018-05-17T07:34:57.122Z,99.90
2018-05-17T07:37:24.588Z,99.90
2018-05-17T07:39:52.026Z,99.90
2018-05-17T07:42:20.234Z,99.90
2018-05-17T07:44:47.686Z,99.90
2018-05-17T07:47:15.224Z,99.90
2018-05-17T07:49:42.603Z,99.90
2018-05-17T07:52:10.153Z,99.90
2018-05-17T07:54:37.519Z,99.90
2018-05-17T07:57:04.987Z,99.90
2018-05-17T07:59:32.441Z,99.90
2018-05-17T08:01:59.881Z,99.90
2018-05-17T08:04:27.330Z,99.90
2018-05-17T08:06:54.789Z,99.90
2018-05-17T08:09:22.332Z,99.90
2018-05-17T08:11:49.693Z,99.90
2018-05-17T08:14:17.155Z,99.90
2018-05-17T08:16:44.594Z,99.90
2018-05-17T08:19:12.058Z,99.90
2018-05-17T08:21:40.262Z,99.90
2018-05-17T08:24:07.722Z,99.90
2018-05-17T08:26:35.171Z,99.90
2018-05-17T08:29:02.706Z,99.90
2018-05-17T08:31:30.083Z,99.90
2018-05-17T08:33:57.541Z,99.90
2018-05-17T08:36:25.125Z,99.90
2018-05-17T08:38:52.462Z,99.90
2018-05-17T08:41:19.915Z,99.90
2018-05-17T08:43:47.370Z,99.90
2018-05-17T08:46:14.814Z,99.90
2018-05-17T08:48:42.285Z,99.90
2018-05-17T08:51:09.731Z,99.90
2018-05-17T08:53:37.182Z,99.90
2018-05-17T08:56:04.642Z,99.90
2018-05-17T08:58:32.098Z,99.90
2018-05-17T09:00:59.554Z,99.90
2018-05-17T09:03:27.018Z,99.90
2018-05-17T09:05:54.483Z,99.90
2018-05-17T09:08:21.909Z,99.90
2018-05-17T09:10:50.126Z,99.90
2018-05-17T09:13:17.569Z,99.90
2018-05-17T09:15:45.029Z,99.90
2018-05-17T09:18:12.467Z,99.90
2018-05-17T09:20:39.926Z,99.90
2018-05-17T09:23:07.402Z,99.90
2018-05-17T09:25:34.866Z,99.90
2018-05-17T09:28:02.311Z,99.90
2018-05-17T09:30:29.765Z,99.90
2018-05-17T09:32:57.235Z,99.90
2018-05-17T09:35:24.674Z,99.90
2018-05-17T09:37:52.142Z,99.90
2018-05-17T09:40:19.598Z,99.90
2018-05-17T09:42:47.025Z,99.90
2018-05-17T09:45:15.250Z,99.90
2018-05-17T09:47:42.777Z,99.90
2018-05-17T09:50:10.153Z,99.90
2018-05-17T09:52:37.599Z,99.90
2018-05-17T09:55:05.117Z,99.90
2018-05-17T09:57:32.499Z,99.00
2018-05-17T09:59:59.969Z,99.90
2018-05-17T10:02:27.427Z,99.90
2018-05-17T10:04:54.887Z,99.90
2018-05-17T10:07:22.344Z,99.20
2018-05-17T10:09:49.798Z,99.90
2018-05-17T10:12:17.259Z,99.90
2018-05-17T10:14:44.756Z,99.90
2018-05-17T10:17:12.176Z,99.90
2018-05-17T10:19:39.644Z,99.10
2018-05-17T10:22:07.113Z,98.50
2018-05-17T10:24:34.568Z,99.40
2018-05-17T10:27:02.027Z,97.70
2018-05-17T10:29:29.588Z,94.60
2018-05-17T10:31:56.964Z,94.30
2018-05-17T10:34:24.421Z,97.50
2018-05-17T10:36:51.880Z,94.50
2018-05-17T10:39:19.337Z,95.20
2018-05-17T10:41:46.806Z,98.70
2018-05-17T10:44:14.274Z,96.00
2018-05-17T10:46:42.490Z,91.20
2018-05-17T10:49:09.935Z,91.40
2018-05-17T10:51:37.394Z,94.20
2018-05-17T10:54:04.850Z,92.30
2018-05-17T10:56:32.310Z,93.20
2018-05-17T10:58:59.754Z,95.90
2018-05-17T11:01:27.208Z,91.50
2018-05-17T11:03:55.440Z,87.10
2018-05-17T11:06:22.890Z,87.10
2018-05-17T11:08:50.365Z,87.00
2018-05-17T11:11:17.818Z,82.70
2018-05-17T11:13:45.324Z,73.30
2018-05-17T11:16:12.794Z,72.10
2018-05-17T11:18:40.233Z,72.80
2018-05-17T11:21:07.694Z,88.70
2018-05-17T11:23:35.147Z,85.30
2018-05-17T11:26:02.697Z,88.20
2018-05-17T11:28:30.838Z,90.80
2018-05-17T11:30:58.324Z,90.70
2018-05-17T11:33:25.778Z,80.50
2018-05-17T11:35:53.234Z,85.70
2018-05-17T11:38:20.694Z,89.60
2018-05-17T11:40:48.934Z,89.10
2018-05-17T11:43:16.385Z,89.30
2018-05-17T11:45:43.842Z,85.20
2018-05-17T11:48:11.303Z,83.90
2018-05-17T11:50:38.812Z,85.10
2018-05-17T11:53:06.230Z,91.00
2018-05-17T11:55:33.700Z,89.80
2018-05-17T11:58:01.154Z,87.60
2018-05-17T12:00:28.631Z,90.50
2018-05-17T12:02:56.834Z,91.40
2018-05-17T12:05:24.284Z,91.40
2018-05-17T12:07:51.734Z,90.20
2018-05-17T12:10:19.187Z,90.30
2018-05-17T12:12:46.648Z,82.10
2018-05-17T12:15:14.095Z,86.00
2018-05-17T12:17:42.326Z,85.00
2018-05-17T12:20:09.780Z,84.30
2018-05-17T12:22:37.238Z,89.30
2018-05-17T12:25:04.690Z,90.50
2018-05-17T12:27:32.140Z,89.40
2018-05-17T12:29:59.595Z,85.30
2018-05-17T12:32:27.057Z,83.10
2018-05-17T12:34:54.513Z,83.70
2018-05-17T12:37:21.972Z,76.10
2018-05-17T12:39:49.402Z,82.50
2018-05-17T12:42:16.891Z,85.30
2018-05-17T12:44:44.347Z,83.60
2018-05-17T12:47:11.823Z,82.00
2018-05-17T12:49:39.270Z,82.40
2018-05-17T12:52:06.735Z,90.70
2018-05-17T12:54:34.185Z,89.30
2018-05-17T12:57:01.660Z,84.00
2018-05-17T12:59:29.115Z,89.90
2018-05-17T13:01:56.566Z,88.20
2018-05-17T13:04:24.021Z,85.30
2018-05-17T13:06:51.482Z,83.90
2018-05-17T13:09:18.931Z,85.00
2018-05-17T13:11:46.390Z,83.00
2018-05-17T13:14:13.851Z,86.90
2018-05-17T13:16:41.350Z,85.60
2018-05-17T13:19:08.797Z,88.20
2018-05-17T13:21:37.017Z,78.20
2018-05-17T13:24:04.474Z,77.80
2018-05-17T13:26:31.935Z,81.30
2018-05-17T13:28:59.397Z,78.80
2018-05-17T13:31:26.849Z,81.60
2018-05-17T13:33:54.362Z,76.90
2018-05-17T13:36:21.809Z,78.40
2018-05-17T13:38:50.063Z,65.90
2018-05-17T13:41:17.517Z,66.00
2018-05-17T13:43:44.982Z,59.00
2018-05-17T13:46:12.430Z,61.60
2018-05-17T13:48:39.889Z,63.50
2018-05-17T13:51:07.355Z,64.80
2018-05-17T13:53:34.833Z,63.70
2018-05-17T13:56:02.298Z,61.20
2018-05-17T13:58:29.758Z,63.80
2018-05-17T14:00:57.212Z,59.50
2018-05-17T14:03:25.425Z,66.20
2018-05-17T14:05:52.886Z,66.20
2018-05-17T14:08:20.351Z,69.80
2018-05-17T14:10:47.798Z,78.90
2018-05-17T14:13:15.253Z,76.90
2018-05-17T14:15:42.708Z,76.40
2018-05-17T14:18:10.165Z,75.10
2018-05-17T14:20:37.622Z,78.70
2018-05-17T14:23:05.162Z,84.10
2018-05-17T14:25:32.540Z,85.90
2018-05-17T14:27:59.997Z,84.90
2018-05-17T14:30:27.452Z,82.80
2018-05-17T14:32:54.911Z,78.20
2018-05-17T14:35:22.376Z,79.90
2018-05-17T14:37:49.841Z,81.90
2018-05-17T14:40:17.292Z,77.70
2018-05-17T14:42:44.846Z,74.60
2018-05-17T14:45:12.318Z,74.00
2018-05-17T14:47:39.772Z,72.40
2018-05-17T14:50:07.232Z,75.20
2018-05-17T14:52:34.702Z,74.60
2018-05-17T14:55:02.173Z,77.40
2018-05-17T14:57:29.635Z,72.60
2018-05-17T14:59:57.069Z,72.10
2018-05-17T15:02:24.534Z,67.90
2018-05-17T15:04:51.995Z,70.70
2018-05-17T15:07:19.442Z,73.70
2018-05-17T15:09:46.922Z,71.70
2018-05-17T15:12:15.144Z,66.50
2018-05-17T15:14:42.627Z,66.50
2018-05-17T15:17:10.066Z,69.00
2018-05-17T15:19:37.538Z,68.30
2018-05-17T15:22:04.981Z,68.20
2018-05-17T15:24:32.529Z,66.60
2018-05-17T15:26:59.901Z,59.20
2018-05-17T15:29:27.366Z,60.50
2018-05-17T15:31:54.806Z,62.50
2018-05-17T15:34:22.277Z,67.10
2018-05-17T15:36:49.736Z,65.80
2018-05-17T15:39:17.206Z,69.20
2018-05-17T15:41:44.709Z,67.50
2018-05-17T15:44:12.137Z,67.00
2018-05-17T15:46:39.593Z,68.70
2018-05-17T15:49:07.035Z,66.80
2018-05-17T15:51:34.492Z,67.90
2018-05-17T15:54:01.961Z,67.00
2018-05-17T15:56:29.404Z,67.80
2018-05-17T15:58:56.873Z,71.50
2018-05-17T16:01:24.335Z,63.40
2018-05-17T16:03:51.777Z,66.30
2018-05-17T16:06:19.234Z,64.90
2018-05-17T16:08:46.700Z,63.60
2018-05-17T16:11:14.162Z,66.30
2018-05-17T16:13:41.625Z,62.10
2018-05-17T16:16:09.074Z,64.20
2018-05-17T16:18:36.530Z,62.00
2018-05-17T16:21:03.997Z,62.00
2018-05-17T16:23:31.449Z,60.90
2018-05-17T16:25:58.911Z,61.60
2018-05-17T16:28:27.129Z,59.70
2018-05-17T16:30:54.598Z,59.70
2018-05-17T16:33:22.066Z,58.40
2018-05-17T16:35:49.538Z,59.30
2018-05-17T16:38:16.991Z,60.10
2018-05-17T16:40:44.446Z,62.00
2018-05-17T16:43:11.901Z,65.30
2018-05-17T16:45:39.374Z,65.40
2018-05-17T16:48:06.879Z,64.90
2018-05-17T16:50:34.274Z,66.90
2018-05-17T16:53:01.802Z,70.30
2018-05-17T16:55:29.212Z,70.60
2018-05-17T16:57:56.658Z,69.70
2018-05-17T17:00:24.121Z,68.60
2018-05-17T17:02:52.371Z,67.80
2018-05-17T17:05:19.826Z,67.80
2018-05-17T17:07:47.283Z,66.80
2018-05-17T17:10:14.725Z,69.10
2018-05-17T17:12:42.178Z,70.60
2018-05-17T17:15:09.630Z,71.60
2018-05-17T17:17:37.139Z,69.10
2018-05-17T17:20:04.603Z,71.90
2018-05-17T17:22:32.060Z,75.40
2018-05-17T17:25:00.294Z,73.70
2018-05-17T17:27:27.756Z,73.60
2018-05-17T17:29:55.219Z,74.30
2018-05-17T17:32:22.728Z,74.00
2018-05-17T17:34:50.202Z,72.50
2018-05-17T17:37:17.661Z,74.60
2018-05-17T17:39:45.135Z,72.60
2018-05-17T17:42:12.601Z,75.00
2018-05-17T17:44:40.058Z,74.00
2018-05-17T17:47:07.526Z,73.40
2018-05-17T17:49:35.004Z,75.60
2018-05-17T17:52:02.458Z,74.10
2018-05-17T17:54:29.906Z,77.70
2018-05-17T17:56:57.361Z,75.80
2018-05-17T17:59:24.830Z,79.40
2018-05-17T18:01:52.294Z,77.40
2018-05-17T18:04:19.753Z,80.60
2018-05-17T18:06:47.927Z,80.80
2018-05-17T18:09:15.367Z,82.30
2018-05-17T18:11:42.822Z,79.60
2018-05-17T18:14:10.281Z,79.60
2018-05-17T18:16:37.738Z,80.10
2018-05-17T18:19:05.199Z,82.10
2018-05-17T18:21:32.665Z,82.40
2018-05-17T18:24:00.177Z,82.30
2018-05-17T18:26:27.599Z,83.00
2018-05-17T18:28:55.838Z,85.50
2018-05-17T18:31:23.306Z,85.50
2018-05-17T18:33:50.823Z,86.60
2018-05-17T18:36:18.218Z,88.70
2018-05-17T18:38:45.675Z,87.50
2018-05-17T18:41:13.134Z,89.30
2018-05-17T18:43:40.590Z,88.20
2018-05-17T18:46:08.114Z,90.50
2018-05-17T18:48:35.620Z,90.40
2018-05-17T18:51:03.092Z,90.40
2018-05-17T18:53:30.527Z,92.20
2018-05-17T18:55:57.996Z,91.70
2018-05-17T18:58:25.421Z,91.70
2018-05-17T19:00:52.868Z,91.90
2018-05-17T19:03:20.327Z,92.60
2018-05-17T19:05:47.798Z,93.50
2018-05-17T19:08:15.266Z,93.70
2018-05-17T19:10:42.711Z,94.20
2018-05-17T19:13:10.157Z,93.90
2018-05-17T19:15:37.608Z,94.60
2018-05-17T19:18:05.063Z,94.20
2018-05-17T19:20:32.523Z,94.60
2018-05-17T19:22:59.990Z,95.20
2018-05-17T19:25:27.433Z,95.30
2018-05-17T19:27:54.899Z,95.50
2018-05-17T19:30:22.378Z,96.40
2018-05-17T19:32:49.830Z,96.00
2018-05-17T19:35:17.278Z,96.20
2018-05-17T19:37:44.732Z,95.90
2018-05-17T19:40:12.185Z,96.30
2018-05-17T19:42:39.638Z,96.20
2018-05-17T19:45:07.108Z,97.50
2018-05-17T19:47:34.562Z,97.30
2018-05-17T19:50:02.018Z,98.20
2018-05-17T19:52:29.479Z,98.40
2018-05-17T19:54:56.917Z,98.60
2018-05-17T19:57:24.375Z,98.20
2018-05-17T19:59:51.834Z,98.20
2018-05-17T20:02:19.296Z,98.40
2018-05-17T20:04:46.737Z,97.90
2018-05-17T20:07:14.189Z,97.60
2018-05-17T20:09:41.656Z,97.20
2018-05-17T20:12:09.115Z,97.80
2018-05-17T20:14:36.565Z,98.20
2018-05-17T20:17:04.019Z,97.80
2018-05-17T20:19:31.475Z,98.80
2018-05-17T20:21:58.923Z,99.20
2018-05-17T20:24:26.390Z,99.30
2018-05-17T20:26:53.878Z,99.10
2018-05-17T20:29:21.397Z,98.70
2018-05-17T20:31:48.771Z,98.90
2018-05-17T20:34:16.248Z,99.60
2018-05-17T20:36:43.722Z,99.90
2018-05-17T20:39:11.175Z,99.90
2018-05-17T20:41:38.614Z,99.90
2018-05-17T20:44:06.069Z,99.90
2018-05-17T20:46:33.509Z,99.90
2018-05-17T20:49:00.999Z,99.90
2018-05-17T20:51:28.442Z,99.90
2018-05-17T20:53:55.902Z,99.90
2018-05-17T20:56:23.345Z,99.90
2018-05-17T20:58:50.808Z,99.90
2018-05-17T21:01:18.241Z,99.90
2018-05-17T21:03:45.708Z,99.90
2018-05-17T21:06:13.158Z,99.90
2018-05-17T21:08:40.610Z,99.90
2018-05-17T21:11:08.052Z,99.90
2018-05-17T21:13:36.272Z,99.90
2018-05-17T21:16:03.726Z,99.90
2018-05-17T21:18:31.175Z,99.90
2018-05-17T21:20:59.437Z,99.90
2018-05-17T21:23:26.870Z,99.90
2018-05-17T21:25:54.302Z,99.90
2018-05-17T21:28:21.761Z,99.90
2018-05-17T21:30:49.199Z,99.90
2018-05-17T21:33:16.646Z,99.90
2018-05-17T21:35:44.106Z,99.90
2018-05-17T21:38:11.544Z,99.90
2018-05-17T21:40:39.014Z,99.90
2018-05-17T21:43:06.470Z,99.90
2018-05-17T21:45:33.913Z,99.90
2018-05-17T21:48:01.358Z,99.90
2018-05-17T21:50:28.819Z,99.90
2018-05-17T21:52:56.261Z,99.90
2018-05-17T21:55:24.550Z,99.90
2018-05-17T21:57:51.933Z,99.90
2018-05-17T22:00:19.373Z,99.90
2018-05-17T22:02:46.818Z,99.90
2018-05-17T22:05:14.280Z,99.90
2018-05-17T22:07:41.736Z,99.90
2018-05-17T22:10:09.185Z,99.90
2018-05-17T22:12:37.403Z,99.90
2018-05-17T22:15:04.845Z,99.90
2018-05-17T22:17:32.305Z,99.90
2018-05-17T22:19:59.766Z,99.90
2018-05-17T22:22:27.215Z,99.90
2018-05-17T22:24:54.659Z,99.90
2018-05-17T22:27:22.119Z,99.90
2018-05-17T22:29:49.573Z,99.90
2018-05-17T22:32:17.018Z,99.90
2018-05-17T22:34:44.477Z,99.90
2018-05-17T22:37:11.942Z,99.90
2018-05-17T22:39:39.402Z,99.90
2018-05-17T22:42:06.856Z,99.90
2018-05-17T22:44:34.313Z,99.90
2018-05-17T22:47:01.791Z,99.90
2018-05-17T22:49:29.227Z,99.90
2018-05-17T22:51:56.746Z,99.90
2018-05-17T22:54:24.127Z,99.90
2018-05-17T22:57:03.594Z,99.90
2018-05-17T22:59:31.046Z,99.90
2018-05-17T23:01:58.497Z,99.90
2018-05-17T23:04:25.958Z,99.90
2018-05-17T23:06:53.410Z,99.90
2018-05-17T23:09:20.865Z,99.90
2018-05-17T23:11:48.333Z,99.90
2018-05-17T23:14:15.775Z,99.90
2018-05-17T23:16:43.221Z,99.90
2018-05-17T23:19:11.421Z,99.90
2018-05-17T23:21:38.894Z,99.90
2018-05-17T23:24:06.333Z,99.90
2018-05-17T23:26:33.794Z,99.90
2018-05-17T23:29:01.251Z,99.90
2018-05-17T23:31:28.710Z,99.90
2018-05-17T23:33:56.137Z,99.90
2018-05-17T23:36:23.598Z,99.90
2018-05-17T23:38:51.793Z,99.90
2018-05-17T23:41:30.992Z,99.90
2018-05-17T23:43:58.433Z,99.90
2018-05-17T23:46:25.890Z,99.90
2018-05-17T23:48:53.347Z,99.90
2018-05-17T23:51:20.785Z,99.90
2018-05-17T23:53:48.225Z,99.90
2018-05-17T23:56:15.747Z,99.90
2018-05-17T23:58:43.127Z,99.90
